Starview, Pennsylvania
Current Conditions -  °F | °C
As of 7:56 PM on Saturday 20 Dec 2014 (Local Time) from KMDT Reporting Station
Broken Clouds Broken Clouds  
Wind Chill: 27°   Ceiling: 12000
Heat Index: 27°   Visibility: 10mi
Dew Point: 20°   Wind: 0mph
Humidity: 75%   Direction: NA
Pressure: 30.28"   Gusts: NA
Location:  40.0548°N, 76.6874°W
Report Text: KMDT 210056Z 00000KT 10SM FEW032 BKN120 M03/M07 A3028 RMK AO2 SLP257 T10281067
Loading
Personal Weather Stations






























Interactive Weather Map New forecast layout! Learn more

10-Day Weather Forecast

Advertisements
Track Severe Weather on mobile